Eships Dana — ZDJT6 — position and weather

sailwx.info

Track history (hours):
 
Tides and Currents Weather Stations Pressure Air Temp Water Temp Dewpoint Dewpoint Depression Visibility Wind Speed Wind Dir Waves Ship Positions

Eships Dana

Last reported at 2018-May-22 11:57 UTC. Time now 2018-May-22 12:05 UTC.
Position N 49°29' E 000°12'.

Length 116 m; draft 7 m.

Type: Ship (hazmat cat A). MMSI: 236566000.

Date/timePositionNaut miles runAvg speedWind from/ knotsBaromVisibWave heightAir tempDewpointWater temp
2018-May-22 11:57N 49°29' E 000°12'0 0.0
2018-May-22 11:30N 49°29' E 000°12'0 0.0
2018-May-22 10:54N 49°29' E 000°12'0 0.0
2018-May-22 10:30N 49°29' E 000°12'1 2.4
2018-May-22 10:00N 49°29' E 000°10'0 0.2
2018-May-22 09:30N 49°29' E 000°10'1 2.0
2018-May-22 09:00N 49°28' E 000°09'3 5.9
2018-May-22 08:30N 49°29' E 000°05'611.4
2018-May-22 08:00N 49°30' W 000°04'4 7.3
2018-May-22 07:30N 49°33' W 000°08'1 1.6
2018-May-22 06:59N 49°33' W 000°09'0 0.0
2018-May-22 06:29N 49°33' W 000°09'0 0.1
2018-May-22 05:59N 49°33' W 000°09'0 0.1
2018-May-22 05:29N 49°33' W 000°09'0 0.1
2018-May-22 04:59N 49°33' W 000°09'0 0.1
2018-May-22 04:29N 49°33' W 000°09'0 0.1
2018-May-22 03:59N 49°33' W 000°09'0 0.0
2018-May-22 03:29N 49°33' W 000°09'0 0.0
2018-May-22 02:59N 49°33' W 000°09'0 0.0
2018-May-22 02:29N 49°33' W 000°09'0 0.0
2018-May-22 01:59N 49°33' W 000°09'0 0.0
2018-May-22 01:29N 49°33' W 000°09'0 0.0
2018-May-22 00:59N 49°33' W 000°09'0 0.0
2018-May-22 00:29N 49°33' W 000°09'0 0.1
2018-May-21 23:59N 49°33' W 000°09'0 0.1
2018-May-21 23:26N 49°33' W 000°09'0 0.1
2018-May-21 22:59N 49°33' W 000°09'0 0.1
2018-May-21 22:29N 49°33' W 000°09'0 0.0
2018-May-21 21:59N 49°33' W 000°09'0 0.0
2018-May-21 21:29N 49°33' W 000°09'0 0.0
2018-May-21 20:59N 49°33' W 000°09'0 0.0
2018-May-21 20:29N 49°33' W 000°09'0 0.0
2018-May-21 19:59N 49°33' W 000°09'0 0.0
2018-May-21 19:29N 49°33' W 000°09'0 0.0
2018-May-21 18:59N 49°33' W 000°09'0 0.0
2018-May-21 18:29N 49°33' W 000°09'0 0.0
2018-May-21 17:59N 49°33' W 000°09'0 0.1
2018-May-21 17:29N 49°33' W 000°09'0 0.0
2018-May-21 16:59N 49°33' W 000°09'0 0.0
2018-May-21 16:29N 49°33' W 000°09'0 0.1
2018-May-21 15:59N 49°33' W 000°09'0 0.0
2018-May-21 15:29N 49°33' W 000°09'0 0.1
2018-May-21 14:59N 49°33' W 000°09'0 0.1
2018-May-21 14:29N 49°33' W 000°09'0 0.0
2018-May-21 13:59N 49°33' W 000°09'0 0.0
2018-May-21 13:29N 49°33' W 000°09'0 0.0
2018-May-21 12:59N 49°33' W 000°09'0 0.0
2018-May-21 12:29N 49°33' W 000°09'0 0.1
2018-May-21 11:56N 49°33' W 000°09'0 0.1
2018-May-21 11:29N 49°33' W 000°09'0 0.1
2018-May-21 10:59N 49°33' W 000°09'0 0.1
2018-May-21 10:29N 49°33' W 000°09'0 0.1
2018-May-21 09:59N 49°33' W 000°09'0 0.0
2018-May-21 09:29N 49°33' W 000°09'0 0.0
2018-May-21 08:59N 49°33' W 000°09'0 0.0
2018-May-21 08:29N 49°33' W 000°09'0 0.0
2018-May-21 07:59N 49°33' W 000°09'0 0.0
2018-May-21 07:29N 49°33' W 000°09'0 0.0
2018-May-21 06:59N 49°33' W 000°09'0 0.0
2018-May-21 06:26N 49°33' W 000°09'0 0.0
2018-May-21 05:59N 49°33' W 000°09'0 0.0
2018-May-21 05:29N 49°33' W 000°09'0 0.0
2018-May-21 04:59N 49°33' W 000°09'0 0.1
2018-May-21 04:29N 49°33' W 000°09'0 0.0
2018-May-21 03:56N 49°33' W 000°09'0 0.0
2018-May-21 03:29N 49°33' W 000°09'0 0.0
2018-May-21 02:59N 49°33' W 000°09'0 0.2
2018-May-21 02:29N 49°33' W 000°09'0 0.1
2018-May-21 01:59N 49°33' W 000°09'0 0.0
2018-May-21 01:29N 49°33' W 000°09'0 0.0
2018-May-21 00:59N 49°33' W 000°09'0 0.0
2018-May-21 00:29N 49°33' W 000°09'0 0.0
2018-May-20 23:59N 49°33' W 000°09'0 0.1
2018-May-20 23:26N 49°33' W 000°09'0 0.1
2018-May-20 22:59N 49°33' W 000°09'0 0.1
2018-May-20 22:29N 49°33' W 000°09'0 0.1
2018-May-20 21:59N 49°33' W 000°09'0 0.1
2018-May-20 21:29N 49°33' W 000°09'0 0.0
2018-May-20 20:59N 49°33' W 000°09'0 0.0
2018-May-20 20:29N 49°33' W 000°10'0 0.0
2018-May-20 19:59N 49°33' W 000°10'0 0.0
2018-May-20 19:29N 49°33' W 000°10'0 0.0
2018-May-20 18:59N 49°33' W 000°10'0 0.0
2018-May-20 18:29N 49°33' W 000°10'0 0.0
2018-May-20 17:59N 49°33' W 000°10'0 0.0
2018-May-20 17:26N 49°33' W 000°10'0 0.0
2018-May-20 16:59N 49°33' W 000°09'0 0.0
2018-May-20 16:29N 49°33' W 000°09'0 0.0
2018-May-20 15:59N 49°33' W 000°09'0 0.0
2018-May-20 15:29N 49°33' W 000°09'0 0.0
2018-May-20 14:59N 49°33' W 000°09'0 0.0
2018-May-20 14:29N 49°33' W 000°09'0 0.1
2018-May-20 13:59N 49°33' W 000°09'0 0.2
2018-May-20 13:29N 49°33' W 000°09'0 0.1
2018-May-20 12:59N 49°33' W 000°09'0 0.0
2018-May-20 12:29N 49°33' W 000°09'0 0.1
2018-May-20 11:59N 49°33' W 000°09'0 0.1
2018-May-20 11:29N 49°33' W 000°09'0 0.1
2018-May-20 10:59N 49°33' W 000°09'0 0.1
2018-May-20 10:29N 49°33' W 000°09'0 0.1
2018-May-20 09:59N 49°33' W 000°09'0 0.1
2018-May-20 09:29N 49°33' W 000°09'0 0.1
2018-May-20 08:59N 49°33' W 000°09'0 0.0
2018-May-20 08:29N 49°33' W 000°10'0 0.0
2018-May-20 07:59N 49°33' W 000°10'0 0.0
2018-May-20 07:29N 49°33' W 000°10'0 0.0
2018-May-20 06:59N 49°33' W 000°10'0 0.0
2018-May-20 06:29N 49°33' W 000°10'0 0.0
2018-May-20 05:59N 49°33' W 000°10'0 0.0
2018-May-20 05:29N 49°33' W 000°10'0 0.0
2018-May-20 04:59N 49°33' W 000°10'0 0.0
2018-May-20 04:29N 49°33' W 000°10'0 0.5
2018-May-20 04:00N 49°33' W 000°10'4 8.0
2018-May-20 03:30N 49°33' W 000°16'611.7
2018-May-20 03:00N 49°35' W 000°25'713.6
2018-May-20 02:30N 49°42' W 000°28'714.1
2018-May-20 02:00N 49°48' W 000°32'714.4
2018-May-20 01:30N 49°55' W 000°37'714.7
2018-May-20 01:00N 50°02' W 000°41'714.7
2018-May-20 00:30N 50°08' W 000°45'714.2
2018-May-20 00:00N 50°15' W 000°49'713.9
2018-May-19 23:29N 50°22' W 000°52'714.6
2018-May-19 23:00N 50°28' W 000°56'713.5
2018-May-19 22:30N 50°35' W 000°59'613.1
2018-May-19 22:00N 50°42' W 000°58'611.3
2018-May-19 21:31N 50°45' W 001°06'815.3
2018-May-19 21:01N 50°47' W 001°17'4 8.6
2018-May-19 20:30N 50°51' W 001°20'0 0.3
2018-May-19 20:00N 50°51' W 001°20'0 0.0
2018-May-19 19:30N 50°51' W 001°20'0 0.0
2018-May-19 19:00N 50°51' W 001°20'0 0.0
2018-May-19 18:30N 50°51' W 001°20'0 0.0
2018-May-19 18:00N 50°51' W 001°20'0 0.0
2018-May-19 17:30N 50°51' W 001°20'0 0.0
2018-May-19 17:00N 50°51' W 001°20'0 0.0
2018-May-19 16:30N 50°51' W 001°20'0 0.0
2018-May-19 16:00N 50°51' W 001°20'0 0.0
2018-May-19 15:21N 50°51' W 001°20'0 0.0
2018-May-19 15:00N 50°51' W 001°20'0 0.0
2018-May-19 14:24N 50°51' W 001°20'0 0.0
2018-May-19 13:54N 50°51' W 001°20'0 0.0
2018-May-19 13:27N 50°51' W 001°20'0 0.0
2018-May-19 12:54N 50°51' W 001°20'0 0.0
2018-May-19 12:27N 50°51' W 001°20'0 0.0
2018-May-19 12:00N 50°51' W 001°20'0 0.0
2018-May-19 11:27N 50°51' W 001°20'0 0.0
2018-May-19 11:00N 50°51' W 001°20'0 0.0
2018-May-19 10:27N 50°51' W 001°20'0 0.0
2018-May-19 09:57N 50°51' W 001°20'0 0.0
2018-May-19 09:27N 50°51' W 001°20'0 0.0
2018-May-19 09:00N 50°51' W 001°20'0 0.0
2018-May-19 08:30N 50°51' W 001°20'0 0.0
2018-May-19 07:57N 50°51' W 001°20'0 0.0
2018-May-19 07:30N 50°51' W 001°20'0 0.0
2018-May-19 06:57N 50°51' W 001°20'0 0.0
2018-May-19 06:30N 50°51' W 001°20'0 0.0
2018-May-19 06:00N 50°51' W 001°20'0 0.0
2018-May-19 05:30N 50°51' W 001°20'0 0.0
2018-May-19 05:00N 50°51' W 001°20'0 0.0
2018-May-19 04:30N 50°51' W 001°20'0 0.0
2018-May-19 04:00N 50°51' W 001°20'0 0.0
2018-May-19 03:30N 50°51' W 001°20'0 0.0
2018-May-19 03:00N 50°51' W 001°20'0 0.0
2018-May-19 02:30N 50°51' W 001°20'0 0.0
2018-May-19 01:51N 50°51' W 001°20'0 0.0
2018-May-19 01:24N 50°51' W 001°20'0 0.0
2018-May-19 00:51N 50°51' W 001°20'0 0.0
2018-May-19 00:24N 50°51' W 001°20'0 0.0
2018-May-19 00:00N 50°51' W 001°20'0 0.0
2018-May-18 23:27N 50°51' W 001°20'0 0.0
2018-May-18 22:54N 50°51' W 001°20'0 0.0
2018-May-18 22:27N 50°51' W 001°20'0 0.0
2018-May-18 21:57N 50°51' W 001°20'0 0.0
2018-May-18 21:30N 50°51' W 001°20'0 0.0
2018-May-18 20:57N 50°51' W 001°20'0 0.0
2018-May-18 20:27N 50°51' W 001°20'0 0.0
2018-May-18 19:57N 50°51' W 001°20'0 0.0
2018-May-18 19:30N 50°51' W 001°20'0 0.0
2018-May-18 19:00N 50°51' W 001°20'0 0.0
2018-May-18 18:30N 50°51' W 001°20'0 0.0
2018-May-18 18:00N 50°51' W 001°20'0 0.0
2018-May-18 17:30N 50°51' W 001°20'0 0.0
2018-May-18 17:00N 50°51' W 001°20'0 0.0
2018-May-18 16:30N 50°51' W 001°20'0 0.0
2018-May-18 16:00N 50°51' W 001°20'0 0.0
2018-May-18 15:30N 50°51' W 001°20'0 0.0
2018-May-18 15:00N 50°51' W 001°20'0 0.0
2018-May-18 14:27N 50°51' W 001°20'0 0.0
2018-May-18 14:00N 50°51' W 001°20'0 0.0
2018-May-18 13:30N 50°51' W 001°20'0 0.0
2018-May-18 12:48N 50°51' W 001°20'0 0.0
2018-May-18 12:30N 50°51' W 001°20'0 0.0
2018-May-18 11:57N 50°51' W 001°20'0 0.0
2018-May-18 11:27N 50°51' W 001°20'0 0.0
2018-May-18 10:54N 50°51' W 001°20'0 0.0
2018-May-18 10:21N 50°51' W 001°20'0 0.0
2018-May-18 09:54N 50°51' W 001°20'0 0.0
2018-May-18 09:24N 50°51' W 001°20'0 0.0
2018-May-18 08:54N 50°51' W 001°20'0 0.0
2018-May-18 08:24N 50°51' W 001°20'0 0.0
2018-May-18 07:54N 50°51' W 001°20'0 0.0
2018-May-18 07:30N 50°51' W 001°20'0 0.0
2018-May-18 07:00N 50°51' W 001°20'0 0.0
2018-May-18 06:30N 50°51' W 001°20'0 0.0
2018-May-18 06:00N 50°51' W 001°20'1 2.9
2018-May-18 05:30N 50°50' W 001°18'4 7.9
2018-May-18 05:00N 50°46' W 001°15'612.1
2018-May-18 04:30N 50°45' W 001°06'3 5.2
2018-May-18 04:00N 50°43' W 001°03'0 0.4
2018-May-18 03:30N 50°43' W 001°03'0 0.1
2018-May-18 03:00N 50°43' W 001°03'0 0.0
2018-May-18 02:30N 50°43' W 001°03'0 0.0
2018-May-18 02:00N 50°43' W 001°03'0 0.0
2018-May-18 01:30N 50°43' W 001°03'0 0.0
2018-May-18 01:00N 50°43' W 001°03'0 0.0
2018-May-18 00:30N 50°43' W 001°03'0 0.0
2018-May-18 00:00N 50°43' W 001°03'0 0.0
2018-May-17 23:30N 50°43' W 001°03'0 0.0
2018-May-17 23:00N 50°43' W 001°03'0 0.0
2018-May-17 22:30N 50°43' W 001°03'0 0.0
2018-May-17 22:00N 50°43' W 001°03'0 0.1
2018-May-17 21:30N 50°43' W 001°03'0 0.1
2018-May-17 21:00N 50°43' W 001°03'0 0.1
2018-May-17 20:30N 50°43' W 001°03'0 0.2
2018-May-17 20:00N 50°43' W 001°03'0 0.0
2018-May-17 19:30N 50°43' W 001°03'0 0.0
2018-May-17 19:00N 50°43' W 001°03'0 0.0
2018-May-17 18:30N 50°43' W 001°03'0 0.1
2018-May-17 18:00N 50°43' W 001°03'0 0.2
2018-May-17 17:30N 50°43' W 001°03'0 0.0
2018-May-17 17:00N 50°43' W 001°03'0 0.0
2018-May-17 16:30N 50°43' W 001°03'0 0.0
2018-May-17 16:00N 50°43' W 001°03'0 0.1
2018-May-17 15:30N 50°43' W 001°03'0 0.1
2018-May-17 15:00N 50°43' W 001°03'0 0.0
2018-May-17 14:30N 50°43' W 001°03'0 0.0
2018-May-17 14:00N 50°43' W 001°03'0 0.0
2018-May-17 13:30N 50°43' W 001°03'0 0.0
2018-May-17 13:00N 50°43' W 001°03'0 0.0
2018-May-17 12:30N 50°43' W 001°03'0 0.0
2018-May-17 12:00N 50°43' W 001°03'0 0.1
2018-May-17 11:30N 50°43' W 001°03'0 0.0
2018-May-17 11:00N 50°43' W 001°03'0 0.0
2018-May-17 10:30N 50°43' W 001°03'0 0.0
2018-May-17 10:00N 50°43' W 001°03'0 0.0
2018-May-17 09:30N 50°43' W 001°03'0 0.1
2018-May-17 09:00N 50°43' W 001°03'0 0.1
2018-May-17 08:30N 50°43' W 001°03'0 0.0
2018-May-17 08:00N 50°43' W 001°03'0 0.1
2018-May-17 07:30N 50°43' W 001°03'0 0.0
2018-May-17 07:00N 50°43' W 001°03'0 0.0
2018-May-17 06:30N 50°43' W 001°03'0 0.0
2018-May-17 06:00N 50°43' W 001°03'0 0.1
2018-May-17 05:30N 50°43' W 001°03'0 0.0
2018-May-17 05:00N 50°43' W 001°03'0 0.0
2018-May-17 04:30N 50°43' W 001°03'0 0.0
2018-May-17 04:00N 50°43' W 001°03'0 0.0
2018-May-17 03:30N 50°43' W 001°03'0 0.0
2018-May-17 03:00N 50°43' W 001°03'0 0.0
2018-May-17 02:30N 50°43' W 001°03'0 0.1
2018-May-17 02:00N 50°43' W 001°03'0 0.0
2018-May-17 01:30N 50°43' W 001°03'0 0.0
2018-May-17 01:00N 50°43' W 001°03'0 0.0
2018-May-17 00:30N 50°43' W 001°03'0 0.0
2018-May-17 00:00N 50°43' W 001°03'0 0.0
2018-May-16 23:30N 50°43' W 001°03'0 0.0
2018-May-16 23:00N 50°43' W 001°03'0 0.0
2018-May-16 22:30N 50°43' W 001°03'0 0.0
2018-May-16 22:00N 50°43' W 001°03'0 0.0
2018-May-16 21:30N 50°43' W 001°03'0 0.0
2018-May-16 21:00N 50°43' W 001°03'0 0.0
2018-May-16 20:30N 50°43' W 001°03'0 0.0
2018-May-16 20:00N 50°43' W 001°03'0 0.0
2018-May-16 19:30N 50°43' W 001°03'0 0.0
2018-May-16 19:00N 50°43' W 001°03'0 0.0
2018-May-16 18:30N 50°43' W 001°03'0 0.0
2018-May-16 18:00N 50°43' W 001°03'0 0.0
2018-May-16 17:30N 50°43' W 001°03'0 0.0
2018-May-16 17:00N 50°43' W 001°03'0 0.0
2018-May-16 16:30N 50°43' W 001°03'0 0.0
2018-May-16 16:00N 50°43' W 001°03'0 0.0
2018-May-16 15:30N 50°43' W 001°03'0 0.0
2018-May-16 15:00N 50°43' W 001°03'0 0.0
2018-May-16 14:30N 50°43' W 001°03'0 0.0
2018-May-16 14:00N 50°43' W 001°03'0 0.1
2018-May-16 13:30N 50°43' W 001°03'0 0.0
2018-May-16 13:00N 50°43' W 001°03'0 0.0
2018-May-16 12:30N 50°43' W 001°03'0 0.0
2018-May-16 12:00N 50°43' W 001°03'0 0.1
2018-May-16 11:30N 50°43' W 001°03'0 0.0
2018-May-16 11:00N 50°43' W 001°03'0 0.0
2018-May-16 10:30N 50°43' W 001°03'0 0.0
2018-May-16 10:00N 50°43' W 001°03'0 0.0
2018-May-16 09:30N 50°43' W 001°03'0 0.1
2018-May-16 09:00N 50°43' W 001°03'0 0.0
2018-May-16 08:30N 50°43' W 001°03'0 0.0
2018-May-16 08:00N 50°43' W 001°03'0 0.0
2018-May-16 07:30N 50°43' W 001°03'0 0.0
2018-May-16 07:00N 50°43' W 001°03'0 0.0
2018-May-16 06:30N 50°43' W 001°03'0 0.0
2018-May-16 06:00N 50°43' W 001°03'0 0.0
2018-May-16 05:30N 50°43' W 001°03'0 0.0
2018-May-16 05:00N 50°43' W 001°03'0 0.1
2018-May-16 04:30N 50°43' W 001°03'0 0.0
2018-May-16 04:00N 50°43' W 001°03'0 0.0
2018-May-16 03:30N 50°43' W 001°03'0 0.1
2018-May-16 03:00N 50°43' W 001°03'1 2.3
2018-May-16 02:30N 50°43' W 001°01'510.1
2018-May-16 02:00N 50°40' W 000°56'713.1
2018-May-16 01:30N 50°35' W 000°49'4 7.9
2018-May-16 01:00N 50°34' W 000°43'816.0
2018-May-16 00:30N 50°33' W 000°30'815.1
2018-May-16 00:00N 50°32' W 000°18'714.5
2018-May-15 23:30N 50°32' W 000°07'713.8
2018-May-15 23:00N 50°33' E 000°04'713.3
2018-May-15 22:30N 50°33' E 000°14'713.0
2018-May-15 22:00N 50°34' E 000°24'612.5
2018-May-15 21:30N 50°35' E 000°34'612.3
2018-May-15 21:00N 50°38' E 000°42'613.0
2018-May-15 20:30N 50°42' E 000°50'714.0
2018-May-15 20:00N 50°47' E 000°58'815.1
2018-May-15 19:28N 50°53' E 001°07'816.3
2018-May-15 18:58N 50°59' E 001°16'817.1
2018-May-15 18:31N 51°04' E 001°25'815.9
2018-May-15 18:00N 51°09' E 001°36'714.7
2018-May-15 17:31N 51°13' E 001°45'713.7
2018-May-15 17:00N 51°18' E 001°52'1010.1
2018-May-15 16:00N 51°26' E 002°02'611.1
2018-May-15 15:30N 51°23' E 002°10'613.0
2018-May-15 15:00N 51°21' E 002°20'713.1
2018-May-15 14:30N 51°23' E 002°30'612.8
2018-May-15 14:00N 51°29' E 002°34'611.7
2018-May-15 13:29N 51°35' E 002°38'5 9.6
2018-May-15 12:55N 51°36' E 002°47'1 1.5
2018-May-15 12:28N 51°36' E 002°46'1 1.3
2018-May-15 11:55N 51°36' E 002°45'1 1.7
2018-May-15 11:27N 51°37' E 002°43'4 7.7
2018-May-15 10:57N 51°33' E 002°42'4 7.6
2018-May-15 10:29N 51°29' E 002°40'1 2.0
2018-May-15 09:57N 51°31' E 002°40'2 2.4
2018-May-15 09:09N 51°32' E 002°41'0 2.6
2018-May-15 09:00N 51°33' E 002°41'1 2.9
2018-May-15 08:29N 51°34' E 002°42'2 3.2
2018-May-15 07:55N 51°36' E 002°44'4 4.5
2018-May-15 07:06N 51°32' E 002°42'110.1
2018-May-15 06:59N 51°31' E 002°41'0 0.8
2018-May-15 06:28N 51°31' E 002°41'1 2.3
2018-May-15 06:00N 51°32' E 002°41'1 1.9
2018-May-15 05:23N 51°33' E 002°42'1 1.7
2018-May-15 04:59N 51°34' E 002°42'1 1.4
2018-May-15 04:24N 51°34' E 002°42'2 4.3
2018-May-15 04:00N 51°33' E 002°43'4 7.5
2018-May-15 03:30N 51°32' E 002°49'1 1.3
2018-May-15 03:00N 51°32' E 002°48'1 1.5
2018-May-15 02:30N 51°32' E 002°47'1 1.7
2018-May-15 02:00N 51°32' E 002°46'1 1.7
2018-May-15 01:29N 51°33' E 002°44'1 1.8
2018-May-15 00:55N 51°33' E 002°43'0 0.9
2018-May-15 00:30N 51°33' E 002°42'1 1.8
2018-May-14 23:59N 51°34' E 002°42'510.7
2018-May-14 23:30N 51°29' E 002°42'1 1.3
2018-May-14 22:59N 51°29' E 002°41'1 1.6
2018-May-14 22:20N 51°30' E 002°41'1 2.1
2018-May-14 21:57N 51°31' E 002°42'1 2.7
2018-May-14 21:30N 51°32' E 002°42'2 3.1
2018-May-14 20:59N 51°34' E 002°43'2 1.6
2018-May-14 19:51N 51°36' E 002°43'3 8.6
2018-May-14 19:30N 51°33' E 002°42'1 2.2
2018-May-14 19:00N 51°34' E 002°42'2 3.4
2018-May-14 18:30N 51°36' E 002°42'2 3.2
2018-May-14 18:00N 51°34' E 002°43'5 9.3
2018-May-14 17:29N 51°29' E 002°40'0 0.5
2018-May-14 16:58N 51°29' E 002°41'1 2.2
2018-May-14 16:27N 51°30' E 002°41'1 1.7
2018-May-14 15:57N 51°31' E 002°42'1 1.4
2018-May-14 15:29N 51°32' E 002°42'1 1.2
2018-May-14 14:59N 51°32' E 002°42'3 5.0
2018-May-14 14:26N 51°30' E 002°45'1 1.2
2018-May-14 13:49N 51°29' E 002°45'0 0.8
2018-May-14 13:24N 51°30' E 002°45'0 0.9
2018-May-14 12:59N 51°30' E 002°45'1 1.0
2018-May-14 11:36N 51°31' E 002°44'0 1.2
2018-May-14 11:28N 51°31' E 002°44'1 1.6
2018-May-14 10:59N 51°32' E 002°43'1 1.6
2018-May-14 10:28N 51°32' E 002°42'510.7
2018-May-14 09:59N 51°28' E 002°37'2 4.1
2018-May-14 09:26N 51°26' E 002°37'0 0.0
2018-May-14 08:58N 51°26' E 002°37'0 0.0
2018-May-14 08:28N 51°26' E 002°37'0 0.0
2018-May-14 07:50N 51°26' E 002°37'0 0.0
2018-May-14 07:28N 51°26' E 002°37'0 0.0
2018-May-14 06:58N 51°26' E 002°37'0 0.0
2018-May-14 06:29N 51°26' E 002°37'0 0.0
2018-May-14 05:55N 51°26' E 002°37'0 0.0
2018-May-14 05:26N 51°26' E 002°37'0 0.1
2018-May-14 04:59N 51°26' E 002°37'0 0.1
2018-May-14 04:28N 51°26' E 002°37'0 0.0
2018-May-14 03:55N 51°26' E 002°37'0 0.1
2018-May-14 03:26N 51°26' E 002°37'0 0.1
2018-May-14 02:58N 51°26' E 002°37'0 0.1
2018-May-14 02:28N 51°26' E 002°37'0 0.1
2018-May-14 01:58N 51°26' E 002°37'0 0.0
2018-May-14 01:26N 51°26' E 002°37'0 0.0
2018-May-14 00:59N 51°26' E 002°37'0 0.0
2018-May-14 00:26N 51°26' E 002°37'0 0.0
2018-May-13 23:55N 51°26' E 002°37'0 0.0
2018-May-13 23:25N 51°26' E 002°37'0 0.0
2018-May-13 22:59N 51°26' E 002°37'0 0.1
2018-May-13 22:28N 51°26' E 002°37'0 0.1
2018-May-13 21:59N 51°26' E 002°37'0 0.1
2018-May-13 21:29N 51°26' E 002°37'0 0.1
2018-May-13 20:52N 51°26' E 002°37'0 0.0
2018-May-13 20:25N 51°26' E 002°37'0 0.0
2018-May-13 19:55N 51°26' E 002°37'0 0.0
2018-May-13 19:25N 51°26' E 002°37'0 0.0
2018-May-13 18:58N 51°26' E 002°37'0 0.0
2018-May-13 18:28N 51°26' E 002°37'0 0.0
2018-May-13 17:59N 51°26' E 002°37'0 0.0
2018-May-13 17:29N 51°26' E 002°37'0 0.1
2018-May-13 16:58N 51°26' E 002°37'0 0.1
2018-May-13 16:28N 51°26' E 002°37'0 0.2
2018-May-13 15:58N 51°26' E 002°37'0 0.0
2018-May-13 15:28N 51°26' E 002°37'0 0.1
2018-May-13 14:59N 51°26' E 002°37'0 0.0
2018-May-13 14:28N 51°26' E 002°37'0 0.0
2018-May-13 13:58N 51°26' E 002°37'0 0.0
2018-May-13 13:29N 51°26' E 002°37'0 0.0
2018-May-13 12:55N 51°26' E 002°37'0 0.0
2018-May-13 12:29N 51°26' E 002°37'0 0.0
2018-May-13 11:59N 51°26' E 002°37'0 0.0
2018-May-13 11:25N 51°26' E 002°37'0 0.0
2018-May-13 10:56N 51°26' E 002°37'0 0.0
2018-May-13 10:28N 51°26' E 002°37'0 0.0
2018-May-13 09:59N 51°26' E 002°37'0 0.0
2018-May-13 09:28N 51°26' E 002°37'0 0.0
2018-May-13 08:59N 51°26' E 002°37'0 0.1
2018-May-13 08:28N 51°26' E 002°37'0 0.1
2018-May-13 07:55N 51°26' E 002°37'0 0.1
2018-May-13 07:28N 51°26' E 002°37'0 0.0
2018-May-13 06:59N 51°26' E 002°37'0 0.0
2018-May-13 06:28N 51°26' E 002°37'0 0.0
2018-May-13 05:55N 51°26' E 002°37'0 0.0
2018-May-13 05:28N 51°26' E 002°37'0 0.2
2018-May-13 04:56N 51°26' E 002°37'0 0.1
2018-May-13 04:29N 51°26' E 002°37'0 0.1
2018-May-13 03:53N 51°26' E 002°37'0 0.0
2018-May-13 03:29N 51°26' E 002°37'0 0.0
2018-May-13 02:58N 51°26' E 002°37'0 0.0
2018-May-13 02:29N 51°26' E 002°37'0 0.0
2018-May-13 01:53N 51°26' E 002°37'0 0.0
2018-May-13 01:28N 51°26' E 002°37'0 0.0
2018-May-13 00:59N 51°26' E 002°37'0 0.0
2018-May-13 00:25N 51°26' E 002°37'0 0.0
2018-May-12 23:59N 51°26' E 002°37'0 0.0
2018-May-12 23:28N 51°26' E 002°37'0 0.0
2018-May-12 22:56N 51°26' E 002°37'0 0.0
2018-May-12 22:28N 51°26' E 002°37'0 0.1
2018-May-12 21:58N 51°26' E 002°37'0 0.0
2018-May-12 21:29N 51°26' E 002°37'0 0.0
2018-May-12 20:56N 51°26' E 002°37'0 0.1
2018-May-12 20:28N 51°26' E 002°37'0 0.2
2018-May-12 19:58N 51°26' E 002°37'0 0.2
2018-May-12 19:28N 51°26' E 002°37'0 0.0
2018-May-12 18:58N 51°26' E 002°37'0 0.0
2018-May-12 18:29N 51°26' E 002°37'0 0.0
2018-May-12 17:58N 51°26' E 002°37'0 0.0
2018-May-12 17:28N 51°26' E 002°37'0 0.0
2018-May-12 16:59N 51°26' E 002°37'0 0.0
2018-May-12 16:19N 51°26' E 002°37'0 0.0
2018-May-12 15:59N 51°26' E 002°37'0 0.1
2018-May-12 15:25N 51°26' E 002°37'0 0.1
2018-May-12 14:56N 51°26' E 002°37'0 0.0
2018-May-12 14:28N 51°26' E 002°37'0 0.1
2018-May-12 13:58N 51°26' E 002°37'0 0.1
2018-May-12 13:29N 51°26' E 002°37'0 0.0
2018-May-12 12:55N 51°26' E 002°37'0 0.0
2018-May-12 12:26N 51°26' E 002°37'0 0.0
2018-May-12 11:58N 51°26' E 002°37'  
Track history (hours):
 
Tides and Currents Weather Stations Pressure Air Temp Water Temp Dewpoint Dewpoint Depression Visibility Wind Speed Wind Dir Waves Ship Positions

Eships Dana

Last reported at 2018-May-22 11:57 UTC. Time now 2018-May-22 12:05 UTC.
Position N 49°29' E 000°12'.

Length 116 m; draft 7 m.

Type: Ship (hazmat cat A). MMSI: 236566000.

Date/timePositionNaut miles runAvg speedWind from/ knotsBaromVisibWave heightAir tempDewpointWater temp
2018-May-22 11:57N 49°29' E 000°12'0 0.0
2018-May-22 11:30N 49°29' E 000°12'0 0.0
2018-May-22 10:54N 49°29' E 000°12'0 0.0
2018-May-22 10:30N 49°29' E 000°12'1 2.4
2018-May-22 10:00N 49°29' E 000°10'0 0.2
2018-May-22 09:30N 49°29' E 000°10'1 2.0
2018-May-22 09:00N 49°28' E 000°09'3 5.9
2018-May-22 08:30N 49°29' E 000°05'611.4
2018-May-22 08:00N 49°30' W 000°04'4 7.3
2018-May-22 07:30N 49°33' W 000°08'1 1.6
2018-May-22 06:59N 49°33' W 000°09'0 0.0
2018-May-22 06:29N 49°33' W 000°09'0 0.1
2018-May-22 05:59N 49°33' W 000°09'0 0.1
2018-May-22 05:29N 49°33' W 000°09'0 0.1
2018-May-22 04:59N 49°33' W 000°09'0 0.1
2018-May-22 04:29N 49°33' W 000°09'0 0.1
2018-May-22 03:59N 49°33' W 000°09'0 0.0
2018-May-22 03:29N 49°33' W 000°09'0 0.0
2018-May-22 02:59N 49°33' W 000°09'0 0.0
2018-May-22 02:29N 49°33' W 000°09'0 0.0
2018-May-22 01:59N 49°33' W 000°09'0 0.0
2018-May-22 01:29N 49°33' W 000°09'0 0.0
2018-May-22 00:59N 49°33' W 000°09'0 0.0
2018-May-22 00:29N 49°33' W 000°09'0 0.1
2018-May-21 23:59N 49°33' W 000°09'0 0.1
2018-May-21 23:26N 49°33' W 000°09'0 0.1
2018-May-21 22:59N 49°33' W 000°09'0 0.1
2018-May-21 22:29N 49°33' W 000°09'0 0.0
2018-May-21 21:59N 49°33' W 000°09'0 0.0
2018-May-21 21:29N 49°33' W 000°09'0 0.0
2018-May-21 20:59N 49°33' W 000°09'0 0.0
2018-May-21 20:29N 49°33' W 000°09'0 0.0
2018-May-21 19:59N 49°33' W 000°09'0 0.0
2018-May-21 19:29N 49°33' W 000°09'0 0.0
2018-May-21 18:59N 49°33' W 000°09'0 0.0
2018-May-21 18:29N 49°33' W 000°09'0 0.0
2018-May-21 17:59N 49°33' W 000°09'0 0.1
2018-May-21 17:29N 49°33' W 000°09'0 0.0
2018-May-21 16:59N 49°33' W 000°09'0 0.0
2018-May-21 16:29N 49°33' W 000°09'0 0.1
2018-May-21 15:59N 49°33' W 000°09'0 0.0
2018-May-21 15:29N 49°33' W 000°09'0 0.1
2018-May-21 14:59N 49°33' W 000°09'0 0.1
2018-May-21 14:29N 49°33' W 000°09'0 0.0
2018-May-21 13:59N 49°33' W 000°09'0 0.0
2018-May-21 13:29N 49°33' W 000°09'0 0.0
2018-May-21 12:59N 49°33' W 000°09'0 0.0
2018-May-21 12:29N 49°33' W 000°09'0 0.1
2018-May-21 11:56N 49°33' W 000°09'0 0.1
2018-May-21 11:29N 49°33' W 000°09'0 0.1
2018-May-21 10:59N 49°33' W 000°09'0 0.1
2018-May-21 10:29N 49°33' W 000°09'0 0.1
2018-May-21 09:59N 49°33' W 000°09'0 0.0
2018-May-21 09:29N 49°33' W 000°09'0 0.0
2018-May-21 08:59N 49°33' W 000°09'0 0.0
2018-May-21 08:29N 49°33' W 000°09'0 0.0
2018-May-21 07:59N 49°33' W 000°09'0 0.0
2018-May-21 07:29N 49°33' W 000°09'0 0.0
2018-May-21 06:59N 49°33' W 000°09'0 0.0
2018-May-21 06:26N 49°33' W 000°09'0 0.0
2018-May-21 05:59N 49°33' W 000°09'0 0.0
2018-May-21 05:29N 49°33' W 000°09'0 0.0
2018-May-21 04:59N 49°33' W 000°09'0 0.1
2018-May-21 04:29N 49°33' W 000°09'0 0.0
2018-May-21 03:56N 49°33' W 000°09'0 0.0
2018-May-21 03:29N 49°33' W 000°09'0 0.0
2018-May-21 02:59N 49°33' W 000°09'0 0.2
2018-May-21 02:29N 49°33' W 000°09'0 0.1
2018-May-21 01:59N 49°33' W 000°09'0 0.0
2018-May-21 01:29N 49°33' W 000°09'0 0.0
2018-May-21 00:59N 49°33' W 000°09'0 0.0
2018-May-21 00:29N 49°33' W 000°09'0 0.0
2018-May-20 23:59N 49°33' W 000°09'0 0.1
2018-May-20 23:26N 49°33' W 000°09'0 0.1
2018-May-20 22:59N 49°33' W 000°09'0 0.1
2018-May-20 22:29N 49°33' W 000°09'0 0.1
2018-May-20 21:59N 49°33' W 000°09'0 0.1
2018-May-20 21:29N 49°33' W 000°09'0 0.0
2018-May-20 20:59N 49°33' W 000°09'0 0.0
2018-May-20 20:29N 49°33' W 000°10'0 0.0
2018-May-20 19:59N 49°33' W 000°10'0 0.0
2018-May-20 19:29N 49°33' W 000°10'0 0.0
2018-May-20 18:59N 49°33' W 000°10'0 0.0
2018-May-20 18:29N 49°33' W 000°10'0 0.0
2018-May-20 17:59N 49°33' W 000°10'0 0.0
2018-May-20 17:26N 49°33' W 000°10'0 0.0
2018-May-20 16:59N 49°33' W 000°09'0 0.0
2018-May-20 16:29N 49°33' W 000°09'0 0.0
2018-May-20 15:59N 49°33' W 000°09'0 0.0
2018-May-20 15:29N 49°33' W 000°09'0 0.0
2018-May-20 14:59N 49°33' W 000°09'0 0.0
2018-May-20 14:29N 49°33' W 000°09'0 0.1
2018-May-20 13:59N 49°33' W 000°09'0 0.2
2018-May-20 13:29N 49°33' W 000°09'0 0.1
2018-May-20 12:59N 49°33' W 000°09'0 0.0
2018-May-20 12:29N 49°33' W 000°09'0 0.1
2018-May-20 11:59N 49°33' W 000°09'0 0.1
2018-May-20 11:29N 49°33' W 000°09'0 0.1
2018-May-20 10:59N 49°33' W 000°09'0 0.1
2018-May-20 10:29N 49°33' W 000°09'0 0.1
2018-May-20 09:59N 49°33' W 000°09'0 0.1
2018-May-20 09:29N 49°33' W 000°09'0 0.1
2018-May-20 08:59N 49°33' W 000°09'0 0.0
2018-May-20 08:29N 49°33' W 000°10'0 0.0
2018-May-20 07:59N 49°33' W 000°10'0 0.0
2018-May-20 07:29N 49°33' W 000°10'0 0.0
2018-May-20 06:59N 49°33' W 000°10'0 0.0
2018-May-20 06:29N 49°33' W 000°10'0 0.0
2018-May-20 05:59N 49°33' W 000°10'0 0.0
2018-May-20 05:29N 49°33' W 000°10'0 0.0
2018-May-20 04:59N 49°33' W 000°10'0 0.0
2018-May-20 04:29N 49°33' W 000°10'0 0.5
2018-May-20 04:00N 49°33' W 000°10'4 8.0
2018-May-20 03:30N 49°33' W 000°16'611.7
2018-May-20 03:00N 49°35' W 000°25'713.6
2018-May-20 02:30N 49°42' W 000°28'714.1
2018-May-20 02:00N 49°48' W 000°32'714.4
2018-May-20 01:30N 49°55' W 000°37'714.7
2018-May-20 01:00N 50°02' W 000°41'714.7
2018-May-20 00:30N 50°08' W 000°45'714.2
2018-May-20 00:00N 50°15' W 000°49'713.9
2018-May-19 23:29N 50°22' W 000°52'714.6
2018-May-19 23:00N 50°28' W 000°56'713.5
2018-May-19 22:30N 50°35' W 000°59'613.1
2018-May-19 22:00N 50°42' W 000°58'611.3
2018-May-19 21:31N 50°45' W 001°06'815.3
2018-May-19 21:01N 50°47' W 001°17'4 8.6
2018-May-19 20:30N 50°51' W 001°20'0 0.3
2018-May-19 20:00N 50°51' W 001°20'0 0.0
2018-May-19 19:30N 50°51' W 001°20'0 0.0
2018-May-19 19:00N 50°51' W 001°20'0 0.0
2018-May-19 18:30N 50°51' W 001°20'0 0.0
2018-May-19 18:00N 50°51' W 001°20'0 0.0
2018-May-19 17:30N 50°51' W 001°20'0 0.0
2018-May-19 17:00N 50°51' W 001°20'0 0.0
2018-May-19 16:30N 50°51' W 001°20'0 0.0
2018-May-19 16:00N 50°51' W 001°20'0 0.0
2018-May-19 15:21N 50°51' W 001°20'0 0.0
2018-May-19 15:00N 50°51' W 001°20'0 0.0
2018-May-19 14:24N 50°51' W 001°20'0 0.0
2018-May-19 13:54N 50°51' W 001°20'0 0.0
2018-May-19 13:27N 50°51' W 001°20'0 0.0
2018-May-19 12:54N 50°51' W 001°20'0 0.0
2018-May-19 12:27N 50°51' W 001°20'0 0.0
2018-May-19 12:00N 50°51' W 001°20'0 0.0
2018-May-19 11:27N 50°51' W 001°20'0 0.0
2018-May-19 11:00N 50°51' W 001°20'0 0.0
2018-May-19 10:27N 50°51' W 001°20'0 0.0
2018-May-19 09:57N 50°51' W 001°20'0 0.0
2018-May-19 09:27N 50°51' W 001°20'0 0.0
2018-May-19 09:00N 50°51' W 001°20'0 0.0
2018-May-19 08:30N 50°51' W 001°20'0 0.0
2018-May-19 07:57N 50°51' W 001°20'0 0.0
2018-May-19 07:30N 50°51' W 001°20'0 0.0
2018-May-19 06:57N 50°51' W 001°20'0 0.0
2018-May-19 06:30N 50°51' W 001°20'0 0.0
2018-May-19 06:00N 50°51' W 001°20'0 0.0
2018-May-19 05:30N 50°51' W 001°20'0 0.0
2018-May-19 05:00N 50°51' W 001°20'0 0.0
2018-May-19 04:30N 50°51' W 001°20'0 0.0
2018-May-19 04:00N 50°51' W 001°20'0 0.0
2018-May-19 03:30N 50°51' W 001°20'0 0.0
2018-May-19 03:00N 50°51' W 001°20'0 0.0
2018-May-19 02:30N 50°51' W 001°20'0 0.0
2018-May-19 01:51N 50°51' W 001°20'0 0.0
2018-May-19 01:24N 50°51' W 001°20'0 0.0
2018-May-19 00:51N 50°51' W 001°20'0 0.0
2018-May-19 00:24N 50°51' W 001°20'0 0.0
2018-May-19 00:00N 50°51' W 001°20'0 0.0
2018-May-18 23:27N 50°51' W 001°20'0 0.0
2018-May-18 22:54N 50°51' W 001°20'0 0.0
2018-May-18 22:27N 50°51' W 001°20'0 0.0
2018-May-18 21:57N 50°51' W 001°20'0 0.0
2018-May-18 21:30N 50°51' W 001°20'0 0.0
2018-May-18 20:57N 50°51' W 001°20'0 0.0
2018-May-18 20:27N 50°51' W 001°20'0 0.0
2018-May-18 19:57N 50°51' W 001°20'0 0.0
2018-May-18 19:30N 50°51' W 001°20'0 0.0
2018-May-18 19:00N 50°51' W 001°20'0 0.0
2018-May-18 18:30N 50°51' W 001°20'0 0.0
2018-May-18 18:00N 50°51' W 001°20'0 0.0
2018-May-18 17:30N 50°51' W 001°20'0 0.0
2018-May-18 17:00N 50°51' W 001°20'0 0.0
2018-May-18 16:30N 50°51' W 001°20'0 0.0
2018-May-18 16:00N 50°51' W 001°20'0 0.0
2018-May-18 15:30N 50°51' W 001°20'0 0.0
2018-May-18 15:00N 50°51' W 001°20'0 0.0
2018-May-18 14:27N 50°51' W 001°20'0 0.0
2018-May-18 14:00N 50°51' W 001°20'0 0.0
2018-May-18 13:30N 50°51' W 001°20'0 0.0
2018-May-18 12:48N 50°51' W 001°20'0 0.0
2018-May-18 12:30N 50°51' W 001°20'0 0.0
2018-May-18 11:57N 50°51' W 001°20'0 0.0
2018-May-18 11:27N 50°51' W 001°20'0 0.0
2018-May-18 10:54N 50°51' W 001°20'0 0.0
2018-May-18 10:21N 50°51' W 001°20'0 0.0
2018-May-18 09:54N 50°51' W 001°20'0 0.0
2018-May-18 09:24N 50°51' W 001°20'0 0.0
2018-May-18 08:54N 50°51' W 001°20'0 0.0
2018-May-18 08:24N 50°51' W 001°20'0 0.0
2018-May-18 07:54N 50°51' W 001°20'0 0.0
2018-May-18 07:30N 50°51' W 001°20'0 0.0
2018-May-18 07:00N 50°51' W 001°20'0 0.0
2018-May-18 06:30N 50°51' W 001°20'0 0.0
2018-May-18 06:00N 50°51' W 001°20'1 2.9
2018-May-18 05:30N 50°50' W 001°18'4 7.9
2018-May-18 05:00N 50°46' W 001°15'612.1
2018-May-18 04:30N 50°45' W 001°06'3 5.2
2018-May-18 04:00N 50°43' W 001°03'0 0.4
2018-May-18 03:30N 50°43' W 001°03'0 0.1
2018-May-18 03:00N 50°43' W 001°03'0 0.0
2018-May-18 02:30N 50°43' W 001°03'0 0.0
2018-May-18 02:00N 50°43' W 001°03'0 0.0
2018-May-18 01:30N 50°43' W 001°03'0 0.0
2018-May-18 01:00N 50°43' W 001°03'0 0.0
2018-May-18 00:30N 50°43' W 001°03'0 0.0
2018-May-18 00:00N 50°43' W 001°03'0 0.0
2018-May-17 23:30N 50°43' W 001°03'0 0.0
2018-May-17 23:00N 50°43' W 001°03'0 0.0
2018-May-17 22:30N 50°43' W 001°03'0 0.0
2018-May-17 22:00N 50°43' W 001°03'0 0.1
2018-May-17 21:30N 50°43' W 001°03'0 0.1
2018-May-17 21:00N 50°43' W 001°03'0 0.1
2018-May-17 20:30N 50°43' W 001°03'0 0.2
2018-May-17 20:00N 50°43' W 001°03'0 0.0
2018-May-17 19:30N 50°43' W 001°03'0 0.0
2018-May-17 19:00N 50°43' W 001°03'0 0.0
2018-May-17 18:30N 50°43' W 001°03'0 0.1
2018-May-17 18:00N 50°43' W 001°03'0 0.2
2018-May-17 17:30N 50°43' W 001°03'0 0.0
2018-May-17 17:00N 50°43' W 001°03'0 0.0
2018-May-17 16:30N 50°43' W 001°03'0 0.0
2018-May-17 16:00N 50°43' W 001°03'0 0.1
2018-May-17 15:30N 50°43' W 001°03'0 0.1
2018-May-17 15:00N 50°43' W 001°03'0 0.0
2018-May-17 14:30N 50°43' W 001°03'0 0.0
2018-May-17 14:00N 50°43' W 001°03'0 0.0
2018-May-17 13:30N 50°43' W 001°03'0 0.0
2018-May-17 13:00N 50°43' W 001°03'0 0.0
2018-May-17 12:30N 50°43' W 001°03'0 0.0
2018-May-17 12:00N 50°43' W 001°03'0 0.1
2018-May-17 11:30N 50°43' W 001°03'0 0.0
2018-May-17 11:00N 50°43' W 001°03'0 0.0
2018-May-17 10:30N 50°43' W 001°03'0 0.0
2018-May-17 10:00N 50°43' W 001°03'0 0.0
2018-May-17 09:30N 50°43' W 001°03'0 0.1
2018-May-17 09:00N 50°43' W 001°03'0 0.1
2018-May-17 08:30N 50°43' W 001°03'0 0.0
2018-May-17 08:00N 50°43' W 001°03'0 0.1
2018-May-17 07:30N 50°43' W 001°03'0 0.0
2018-May-17 07:00N 50°43' W 001°03'0 0.0
2018-May-17 06:30N 50°43' W 001°03'0 0.0
2018-May-17 06:00N 50°43' W 001°03'0 0.1
2018-May-17 05:30N 50°43' W 001°03'0 0.0
2018-May-17 05:00N 50°43' W 001°03'0 0.0
2018-May-17 04:30N 50°43' W 001°03'0 0.0
2018-May-17 04:00N 50°43' W 001°03'0 0.0
2018-May-17 03:30N 50°43' W 001°03'0 0.0
2018-May-17 03:00N 50°43' W 001°03'0 0.0
2018-May-17 02:30N 50°43' W 001°03'0 0.1
2018-May-17 02:00N 50°43' W 001°03'0 0.0
2018-May-17 01:30N 50°43' W 001°03'0 0.0
2018-May-17 01:00N 50°43' W 001°03'0 0.0
2018-May-17 00:30N 50°43' W 001°03'0 0.0
2018-May-17 00:00N 50°43' W 001°03'0 0.0
2018-May-16 23:30N 50°43' W 001°03'0 0.0
2018-May-16 23:00N 50°43' W 001°03'0 0.0
2018-May-16 22:30N 50°43' W 001°03'0 0.0
2018-May-16 22:00N 50°43' W 001°03'0 0.0
2018-May-16 21:30N 50°43' W 001°03'0 0.0
2018-May-16 21:00N 50°43' W 001°03'0 0.0
2018-May-16 20:30N 50°43' W 001°03'0 0.0
2018-May-16 20:00N 50°43' W 001°03'0 0.0
2018-May-16 19:30N 50°43' W 001°03'0 0.0
2018-May-16 19:00N 50°43' W 001°03'0 0.0
2018-May-16 18:30N 50°43' W 001°03'0 0.0
2018-May-16 18:00N 50°43' W 001°03'0 0.0
2018-May-16 17:30N 50°43' W 001°03'0 0.0
2018-May-16 17:00N 50°43' W 001°03'0 0.0
2018-May-16 16:30N 50°43' W 001°03'0 0.0
2018-May-16 16:00N 50°43' W 001°03'0 0.0
2018-May-16 15:30N 50°43' W 001°03'0 0.0
2018-May-16 15:00N 50°43' W 001°03'0 0.0
2018-May-16 14:30N 50°43' W 001°03'0 0.0
2018-May-16 14:00N 50°43' W 001°03'0 0.1
2018-May-16 13:30N 50°43' W 001°03'0 0.0
2018-May-16 13:00N 50°43' W 001°03'0 0.0
2018-May-16 12:30N 50°43' W 001°03'0 0.0
2018-May-16 12:00N 50°43' W 001°03'0 0.1
2018-May-16 11:30N 50°43' W 001°03'0 0.0
2018-May-16 11:00N 50°43' W 001°03'0 0.0
2018-May-16 10:30N 50°43' W 001°03'0 0.0
2018-May-16 10:00N 50°43' W 001°03'0 0.0
2018-May-16 09:30N 50°43' W 001°03'0 0.1
2018-May-16 09:00N 50°43' W 001°03'0 0.0
2018-May-16 08:30N 50°43' W 001°03'0 0.0
2018-May-16 08:00N 50°43' W 001°03'0 0.0
2018-May-16 07:30N 50°43' W 001°03'0 0.0
2018-May-16 07:00N 50°43' W 001°03'0 0.0
2018-May-16 06:30N 50°43' W 001°03'0 0.0
2018-May-16 06:00N 50°43' W 001°03'0 0.0
2018-May-16 05:30N 50°43' W 001°03'0 0.0
2018-May-16 05:00N 50°43' W 001°03'0 0.1
2018-May-16 04:30N 50°43' W 001°03'0 0.0
2018-May-16 04:00N 50°43' W 001°03'0 0.0
2018-May-16 03:30N 50°43' W 001°03'0 0.1
2018-May-16 03:00N 50°43' W 001°03'1 2.3
2018-May-16 02:30N 50°43' W 001°01'510.1
2018-May-16 02:00N 50°40' W 000°56'713.1
2018-May-16 01:30N 50°35' W 000°49'4 7.9
2018-May-16 01:00N 50°34' W 000°43'816.0
2018-May-16 00:30N 50°33' W 000°30'815.1
2018-May-16 00:00N 50°32' W 000°18'714.5
2018-May-15 23:30N 50°32' W 000°07'713.8
2018-May-15 23:00N 50°33' E 000°04'713.3
2018-May-15 22:30N 50°33' E 000°14'713.0
2018-May-15 22:00N 50°34' E 000°24'612.5
2018-May-15 21:30N 50°35' E 000°34'612.3
2018-May-15 21:00N 50°38' E 000°42'613.0
2018-May-15 20:30N 50°42' E 000°50'714.0
2018-May-15 20:00N 50°47' E 000°58'815.1
2018-May-15 19:28N 50°53' E 001°07'816.3
2018-May-15 18:58N 50°59' E 001°16'817.1
2018-May-15 18:31N 51°04' E 001°25'815.9
2018-May-15 18:00N 51°09' E 001°36'714.7
2018-May-15 17:31N 51°13' E 001°45'713.7
2018-May-15 17:00N 51°18' E 001°52'1010.1
2018-May-15 16:00N 51°26' E 002°02'611.1
2018-May-15 15:30N 51°23' E 002°10'613.0
2018-May-15 15:00N 51°21' E 002°20'713.1
2018-May-15 14:30N 51°23' E 002°30'612.8
2018-May-15 14:00N 51°29' E 002°34'611.7
2018-May-15 13:29N 51°35' E 002°38'5 9.6
2018-May-15 12:55N 51°36' E 002°47'1 1.5
2018-May-15 12:28N 51°36' E 002°46'1 1.3
2018-May-15 11:55N 51°36' E 002°45'1 1.7
2018-May-15 11:27N 51°37' E 002°43'4 7.7
2018-May-15 10:57N 51°33' E 002°42'4 7.6
2018-May-15 10:29N 51°29' E 002°40'1 2.0
2018-May-15 09:57N 51°31' E 002°40'2 2.4
2018-May-15 09:09N 51°32' E 002°41'0 2.6
2018-May-15 09:00N 51°33' E 002°41'1 2.9
2018-May-15 08:29N 51°34' E 002°42'2 3.2
2018-May-15 07:55N 51°36' E 002°44'4 4.5
2018-May-15 07:06N 51°32' E 002°42'110.1
2018-May-15 06:59N 51°31' E 002°41'0 0.8
2018-May-15 06:28N 51°31' E 002°41'1 2.3
2018-May-15 06:00N 51°32' E 002°41'1 1.9
2018-May-15 05:23N 51°33' E 002°42'1 1.7
2018-May-15 04:59N 51°34' E 002°42'1 1.4
2018-May-15 04:24N 51°34' E 002°42'2 4.3
2018-May-15 04:00N 51°33' E 002°43'4 7.5
2018-May-15 03:30N 51°32' E 002°49'1 1.3
2018-May-15 03:00N 51°32' E 002°48'1 1.5
2018-May-15 02:30N 51°32' E 002°47'1 1.7
2018-May-15 02:00N 51°32' E 002°46'1 1.7
2018-May-15 01:29N 51°33' E 002°44'1 1.8
2018-May-15 00:55N 51°33' E 002°43'0 0.9
2018-May-15 00:30N 51°33' E 002°42'1 1.8
2018-May-14 23:59N 51°34' E 002°42'510.7
2018-May-14 23:30N 51°29' E 002°42'1 1.3
2018-May-14 22:59N 51°29' E 002°41'1 1.6
2018-May-14 22:20N 51°30' E 002°41'1 2.1
2018-May-14 21:57N 51°31' E 002°42'1 2.7
2018-May-14 21:30N 51°32' E 002°42'2 3.1
2018-May-14 20:59N 51°34' E 002°43'2 1.6
2018-May-14 19:51N 51°36' E 002°43'3 8.6
2018-May-14 19:30N 51°33' E 002°42'1 2.2
2018-May-14 19:00N 51°34' E 002°42'2 3.4
2018-May-14 18:30N 51°36' E 002°42'2 3.2
2018-May-14 18:00N 51°34' E 002°43'5 9.3
2018-May-14 17:29N 51°29' E 002°40'0 0.5
2018-May-14 16:58N 51°29' E 002°41'1 2.2
2018-May-14 16:27N 51°30' E 002°41'1 1.7
2018-May-14 15:57N 51°31' E 002°42'1 1.4
2018-May-14 15:29N 51°32' E 002°42'1 1.2
2018-May-14 14:59N 51°32' E 002°42'3 5.0
2018-May-14 14:26N 51°30' E 002°45'1 1.2
2018-May-14 13:49N 51°29' E 002°45'0 0.8
2018-May-14 13:24N 51°30' E 002°45'0 0.9
2018-May-14 12:59N 51°30' E 002°45'1 1.0
2018-May-14 11:36N 51°31' E 002°44'0 1.2
2018-May-14 11:28N 51°31' E 002°44'1 1.6
2018-May-14 10:59N 51°32' E 002°43'1 1.6
2018-May-14 10:28N 51°32' E 002°42'510.7
2018-May-14 09:59N 51°28' E 002°37'2 4.1
2018-May-14 09:26N 51°26' E 002°37'0 0.0
2018-May-14 08:58N 51°26' E 002°37'0 0.0
2018-May-14 08:28N 51°26' E 002°37'0 0.0
2018-May-14 07:50N 51°26' E 002°37'0 0.0
2018-May-14 07:28N 51°26' E 002°37'0 0.0
2018-May-14 06:58N 51°26' E 002°37'0 0.0
2018-May-14 06:29N 51°26' E 002°37'0 0.0
2018-May-14 05:55N 51°26' E 002°37'0 0.0
2018-May-14 05:26N 51°26' E 002°37'0 0.1
2018-May-14 04:59N 51°26' E 002°37'0 0.1
2018-May-14 04:28N 51°26' E 002°37'0 0.0
2018-May-14 03:55N 51°26' E 002°37'0 0.1
2018-May-14 03:26N 51°26' E 002°37'0 0.1
2018-May-14 02:58N 51°26' E 002°37'0 0.1
2018-May-14 02:28N 51°26' E 002°37'0 0.1
2018-May-14 01:58N 51°26' E 002°37'0 0.0
2018-May-14 01:26N 51°26' E 002°37'0 0.0
2018-May-14 00:59N 51°26' E 002°37'0 0.0
2018-May-14 00:26N 51°26' E 002°37'0 0.0
2018-May-13 23:55N 51°26' E 002°37'0 0.0
2018-May-13 23:25N 51°26' E 002°37'0 0.0
2018-May-13 22:59N 51°26' E 002°37'0 0.1
2018-May-13 22:28N 51°26' E 002°37'0 0.1
2018-May-13 21:59N 51°26' E 002°37'0 0.1
2018-May-13 21:29N 51°26' E 002°37'0 0.1
2018-May-13 20:52N 51°26' E 002°37'0 0.0
2018-May-13 20:25N 51°26' E 002°37'0 0.0
2018-May-13 19:55N 51°26' E 002°37'0 0.0
2018-May-13 19:25N 51°26' E 002°37'0 0.0
2018-May-13 18:58N 51°26' E 002°37'0 0.0
2018-May-13 18:28N 51°26' E 002°37'0 0.0
2018-May-13 17:59N 51°26' E 002°37'0 0.0
2018-May-13 17:29N 51°26' E 002°37'0 0.1
2018-May-13 16:58N 51°26' E 002°37'0 0.1
2018-May-13 16:28N 51°26' E 002°37'0 0.2
2018-May-13 15:58N 51°26' E 002°37'0 0.0
2018-May-13 15:28N 51°26' E 002°37'0 0.1
2018-May-13 14:59N 51°26' E 002°37'0 0.0
2018-May-13 14:28N 51°26' E 002°37'0 0.0
2018-May-13 13:58N 51°26' E 002°37'0 0.0
2018-May-13 13:29N 51°26' E 002°37'0 0.0
2018-May-13 12:55N 51°26' E 002°37'0 0.0
2018-May-13 12:29N 51°26' E 002°37'0 0.0
2018-May-13 11:59N 51°26' E 002°37'0 0.0
2018-May-13 11:25N 51°26' E 002°37'0 0.0
2018-May-13 10:56N 51°26' E 002°37'0 0.0
2018-May-13 10:28N 51°26' E 002°37'0 0.0
2018-May-13 09:59N 51°26' E 002°37'0 0.0
2018-May-13 09:28N 51°26' E 002°37'0 0.0
2018-May-13 08:59N 51°26' E 002°37'0 0.1
2018-May-13 08:28N 51°26' E 002°37'0 0.1
2018-May-13 07:55N 51°26' E 002°37'0 0.1
2018-May-13 07:28N 51°26' E 002°37'0 0.0
2018-May-13 06:59N 51°26' E 002°37'0 0.0
2018-May-13 06:28N 51°26' E 002°37'0 0.0
2018-May-13 05:55N 51°26' E 002°37'0 0.0
2018-May-13 05:28N 51°26' E 002°37'0 0.2
2018-May-13 04:56N 51°26' E 002°37'0 0.1
2018-May-13 04:29N 51°26' E 002°37'0 0.1
2018-May-13 03:53N 51°26' E 002°37'0 0.0
2018-May-13 03:29N 51°26' E 002°37'0 0.0
2018-May-13 02:58N 51°26' E 002°37'0 0.0
2018-May-13 02:29N 51°26' E 002°37'0 0.0
2018-May-13 01:53N 51°26' E 002°37'0 0.0
2018-May-13 01:28N 51°26' E 002°37'0 0.0
2018-May-13 00:59N 51°26' E 002°37'0 0.0
2018-May-13 00:25N 51°26' E 002°37'0 0.0
2018-May-12 23:59N 51°26' E 002°37'0 0.0
2018-May-12 23:28N 51°26' E 002°37'0 0.0
2018-May-12 22:56N 51°26' E 002°37'0 0.0
2018-May-12 22:28N 51°26' E 002°37'0 0.1
2018-May-12 21:58N 51°26' E 002°37'0 0.0
2018-May-12 21:29N 51°26' E 002°37'0 0.0
2018-May-12 20:56N 51°26' E 002°37'0 0.1
2018-May-12 20:28N 51°26' E 002°37'0 0.2
2018-May-12 19:58N 51°26' E 002°37'0 0.2
2018-May-12 19:28N 51°26' E 002°37'0 0.0
2018-May-12 18:58N 51°26' E 002°37'0 0.0
2018-May-12 18:29N 51°26' E 002°37'0 0.0
2018-May-12 17:58N 51°26' E 002°37'0 0.0
2018-May-12 17:28N 51°26' E 002°37'0 0.0
2018-May-12 16:59N 51°26' E 002°37'0 0.0
2018-May-12 16:19N 51°26' E 002°37'0 0.0
2018-May-12 15:59N 51°26' E 002°37'0 0.1
2018-May-12 15:25N 51°26' E 002°37'0 0.1
2018-May-12 14:56N 51°26' E 002°37'0 0.0
2018-May-12 14:28N 51°26' E 002°37'0 0.1
2018-May-12 13:58N 51°26' E 002°37'0 0.1
2018-May-12 13:29N 51°26' E 002°37'0 0.0
2018-May-12 12:55N 51°26' E 002°37'0 0.0
2018-May-12 12:26N 51°26' E 002°37'0 0.0
2018-May-12 11:58N 51°26' E 002°37'  

Dump ship's entire track history